createdAt,value
2019-02-22T00:01:14.157Z,17.67
2019-02-22T00:03:43.193Z,17.20
2019-02-22T00:06:12.167Z,17.90
2019-02-22T00:08:41.196Z,17.20
2019-02-22T00:11:10.329Z,18.03
2019-02-22T00:13:39.167Z,15.90
2019-02-22T00:16:08.230Z,17.10
2019-02-22T00:18:37.595Z,15.97
2019-02-22T00:21:06.554Z,17.93
2019-02-22T00:23:35.573Z,16.20
2019-02-22T00:26:04.627Z,16.80
2019-02-22T00:28:33.810Z,17.20
2019-02-22T00:31:02.824Z,18.30
2019-02-22T00:33:31.909Z,17.37
2019-02-22T00:36:00.941Z,17.43
2019-02-22T00:38:29.949Z,15.60
2019-02-22T00:40:59.076Z,16.10
2019-02-22T00:43:28.140Z,15.83
2019-02-22T00:45:57.187Z,16.07
2019-02-22T00:48:26.198Z,18.67
2019-02-22T00:50:55.268Z,16.80
2019-02-22T00:53:24.229Z,17.03
2019-02-22T00:55:53.293Z,16.73
2019-02-22T00:58:22.385Z,16.93
2019-02-22T01:00:51.353Z,17.60
2019-02-22T01:03:20.329Z,17.73
2019-02-22T01:05:49.516Z,17.20
2019-02-22T01:08:18.460Z,17.57
2019-02-22T01:10:47.448Z,17.43
2019-02-22T01:13:16.534Z,17.47
2019-02-22T01:15:45.519Z,15.67
2019-02-22T01:18:14.413Z,17.10
2019-02-22T01:20:53.762Z,17.27
2019-02-22T01:23:14.192Z,15.40
2019-02-22T01:25:43.190Z,17.23
2019-02-22T01:28:12.257Z,17.67
2019-02-22T01:30:41.349Z,16.57
2019-02-22T01:33:10.253Z,16.57
2019-02-22T01:35:39.264Z,16.57
2019-02-22T01:38:08.236Z,16.13
2019-02-22T01:40:43.586Z,17.03
2019-02-22T01:43:07.992Z,17.60
2019-02-22T01:45:38.787Z,16.83
2019-02-22T01:48:08.022Z,17.77
2019-02-22T01:50:37.193Z,17.10
2019-02-22T01:53:06.148Z,16.53
2019-02-22T01:55:35.169Z,15.90
2019-02-22T01:58:04.116Z,17.03
2019-02-22T02:00:33.117Z,16.33
2019-02-22T02:03:02.080Z,16.60
2019-02-22T02:05:31.002Z,15.30
2019-02-22T02:08:00.079Z,17.20
2019-02-22T02:10:29.173Z,16.13
2019-02-22T02:12:58.150Z,14.87
2019-02-22T02:15:27.233Z,16.50
2019-02-22T02:17:56.213Z,16.27
2019-02-22T02:20:25.212Z,16.83
2019-02-22T02:22:54.384Z,15.73
2019-02-22T02:25:23.492Z,15.90
2019-02-22T02:27:52.525Z,16.57
2019-02-22T02:30:21.528Z,16.77
2019-02-22T02:32:50.494Z,16.57
2019-02-22T02:35:19.428Z,16.20
2019-02-22T02:37:48.475Z,15.87
2019-02-22T02:40:17.645Z,15.43
2019-02-22T02:42:46.614Z,15.50
2019-02-22T02:45:15.623Z,16.03
2019-02-22T02:47:44.584Z,15.47
2019-02-22T02:50:16.801Z,15.50
2019-02-22T02:52:46.029Z,16.63
2019-02-22T02:55:31.444Z,15.37
2019-02-22T02:58:00.557Z,15.50
2019-02-22T03:00:29.592Z,15.10
2019-02-22T03:02:58.612Z,15.70
2019-02-22T03:05:46.648Z,16.90
2019-02-22T03:08:15.645Z,17.10
2019-02-22T03:10:44.640Z,16.30
2019-02-22T03:13:13.963Z,17.00
2019-02-22T03:15:42.998Z,16.90
2019-02-22T03:18:12.017Z,17.70
2019-02-22T03:20:41.092Z,17.60
2019-02-22T03:23:10.149Z,15.83
2019-02-22T03:25:39.121Z,17.67
2019-02-22T03:28:08.218Z,17.47
2019-02-22T03:30:37.173Z,17.70
2019-02-22T03:33:06.164Z,16.77
2019-02-22T03:35:35.365Z,18.33
2019-02-22T03:38:05.938Z,18.90
2019-02-22T03:40:35.024Z,18.20
2019-02-22T03:43:03.982Z,20.73
2019-02-22T03:45:32.945Z,19.80
2019-02-22T03:48:01.984Z,21.43
2019-02-22T03:50:31.054Z,19.20
2019-02-22T03:53:06.598Z,20.07
2019-02-22T03:55:35.590Z,20.70
2019-02-22T03:58:04.724Z,18.87
2019-02-22T04:00:33.599Z,19.30
2019-02-22T04:03:02.562Z,19.60
2019-02-22T04:05:31.529Z,20.60
2019-02-22T04:08:00.607Z,20.00
2019-02-22T04:10:29.644Z,20.70
2019-02-22T04:12:58.904Z,20.30
2019-02-22T04:15:27.790Z,21.37
2019-02-22T04:17:56.895Z,24.67
2019-02-22T04:20:25.985Z,25.40
2019-02-22T04:22:55.031Z,24.67
2019-02-22T04:25:24.221Z,24.13
2019-02-22T04:27:53.444Z,23.63
2019-02-22T04:30:22.568Z,27.17
2019-02-22T04:32:51.533Z,26.40
2019-02-22T04:35:20.533Z,27.23
2019-02-22T04:37:49.420Z,25.40
2019-02-22T04:40:18.410Z,27.70
2019-02-22T04:42:47.392Z,28.17
2019-02-22T04:45:16.451Z,26.93
2019-02-22T04:47:45.397Z,26.00
2019-02-22T04:50:14.589Z,25.50
2019-02-22T04:52:43.569Z,27.80
2019-02-22T04:55:12.578Z,25.17
2019-02-22T04:57:42.109Z,25.73
2019-02-22T05:00:11.192Z,26.70
2019-02-22T05:02:40.253Z,26.83
2019-02-22T05:05:09.286Z,28.17
2019-02-22T05:07:38.226Z,27.23
2019-02-22T05:10:07.524Z,29.10
2019-02-22T05:12:37.147Z,29.90
2019-02-22T05:15:12.427Z,28.47
2019-02-22T05:17:37.033Z,28.87
2019-02-22T05:20:06.123Z,30.47
2019-02-22T05:22:35.220Z,29.93
2019-02-22T05:25:04.590Z,29.63
2019-02-22T05:27:33.542Z,29.20
2019-02-22T05:30:02.629Z,27.93
2019-02-22T05:32:31.696Z,32.53
2019-02-22T05:35:00.686Z,29.53
2019-02-22T05:37:29.572Z,31.80
2019-02-22T05:39:58.713Z,30.87
2019-02-22T05:42:28.710Z,31.63
2019-02-22T05:44:57.906Z,32.40
2019-02-22T05:47:26.941Z,30.70
2019-02-22T05:49:55.881Z,32.40
2019-02-22T05:52:24.885Z,30.20
2019-02-22T05:54:53.845Z,29.77
2019-02-22T05:57:22.805Z,29.83
2019-02-22T05:59:51.881Z,30.73
2019-02-22T06:02:21.237Z,29.60
2019-02-22T06:04:50.193Z,31.27
2019-02-22T06:07:19.206Z,31.87
2019-02-22T06:09:48.276Z,31.97
2019-02-22T06:12:18.633Z,32.40
2019-02-22T06:14:48.090Z,32.23
2019-02-22T06:17:17.207Z,31.33
2019-02-22T06:19:46.212Z,32.27
2019-02-22T06:22:15.259Z,33.87
2019-02-22T06:24:44.284Z,35.87
2019-02-22T06:27:13.305Z,37.87
2019-02-22T06:29:42.384Z,38.23
2019-02-22T06:32:11.333Z,38.47
2019-02-22T06:34:40.305Z,40.73
2019-02-22T06:37:09.322Z,40.17
2019-02-22T06:39:38.474Z,40.50
2019-02-22T06:42:07.533Z,40.03
2019-02-22T06:44:36.552Z,40.77
2019-02-22T06:47:05.530Z,41.77
2019-02-22T06:49:35.592Z,40.23
2019-02-22T06:52:04.605Z,39.93
2019-02-22T06:54:33.580Z,40.03
2019-02-22T06:57:02.548Z,38.00
2019-02-22T06:59:31.537Z,40.20
2019-02-22T07:02:00.622Z,40.90
2019-02-22T07:04:29.593Z,39.87
2019-02-22T07:06:58.589Z,38.33
2019-02-22T07:09:27.554Z,39.73
2019-02-22T07:11:59.728Z,38.27
2019-02-22T07:14:28.727Z,37.10
2019-02-22T07:16:57.822Z,37.37
2019-02-22T07:19:26.696Z,36.50
2019-02-22T07:21:55.662Z,38.20
2019-02-22T07:24:24.672Z,37.97
2019-02-22T07:26:53.700Z,39.00
2019-02-22T07:29:22.663Z,38.50
2019-02-22T07:31:51.864Z,40.50
2019-02-22T07:34:20.892Z,42.50
2019-02-22T07:36:49.912Z,37.60
2019-02-22T07:39:27.462Z,36.50
2019-02-22T07:41:49.730Z,37.47
2019-02-22T07:44:18.833Z,35.40
2019-02-22T07:46:47.840Z,38.10
2019-02-22T07:49:24.204Z,38.40
2019-02-22T07:51:53.228Z,37.33
2019-02-22T07:54:22.263Z,38.30
2019-02-22T07:56:51.162Z,37.13
2019-02-22T07:59:20.226Z,35.87
2019-02-22T08:01:51.212Z,35.40
2019-02-22T08:04:20.245Z,35.40
2019-02-22T08:06:49.400Z,37.00
2019-02-22T08:09:18.368Z,37.30
2019-02-22T08:11:48.148Z,34.83
2019-02-22T08:14:17.536Z,34.87
2019-02-22T08:16:46.601Z,36.07
2019-02-22T08:19:15.661Z,35.37
2019-02-22T08:21:45.850Z,34.20
2019-02-22T08:24:14.849Z,34.97
2019-02-22T08:26:43.923Z,34.03
2019-02-22T08:29:12.965Z,33.27
2019-02-22T08:31:41.894Z,30.80
2019-02-22T08:34:12.444Z,33.80
2019-02-22T08:36:41.624Z,33.43
2019-02-22T08:39:10.700Z,34.47
2019-02-22T08:41:39.735Z,32.90
2019-02-22T08:44:08.738Z,30.37
2019-02-22T08:46:37.783Z,30.70
2019-02-22T08:49:06.754Z,30.60
2019-02-22T08:51:35.727Z,29.97
2019-02-22T08:54:04.706Z,29.80
2019-02-22T08:56:33.706Z,29.27
2019-02-22T08:59:02.923Z,27.63
2019-02-22T09:01:32.076Z,28.77
2019-02-22T09:04:01.116Z,28.33
2019-02-22T09:06:30.124Z,28.27
2019-02-22T09:08:59.196Z,26.80
2019-02-22T09:11:28.263Z,28.23
2019-02-22T09:13:57.309Z,27.93
2019-02-22T09:16:26.333Z,26.53
2019-02-22T09:18:55.300Z,30.30
2019-02-22T09:21:24.274Z,28.03
2019-02-22T09:23:53.484Z,25.60
2019-02-22T09:26:22.508Z,26.20
2019-02-22T09:28:51.477Z,26.60
2019-02-22T09:31:20.568Z,28.40
2019-02-22T09:33:49.540Z,26.87
2019-02-22T09:36:18.527Z,25.47
2019-02-22T09:38:47.540Z,25.47
2019-02-22T09:41:16.434Z,27.70
2019-02-22T09:43:54.562Z,27.60
2019-02-22T09:46:16.148Z,26.70
2019-02-22T09:48:45.219Z,26.43
2019-02-22T09:51:14.192Z,26.43
2019-02-22T09:53:43.319Z,25.33
2019-02-22T09:56:12.412Z,23.93
2019-02-22T09:58:41.550Z,24.40
2019-02-22T10:01:10.564Z,23.40
2019-02-22T10:03:39.550Z,21.00
2019-02-22T10:06:08.605Z,20.97
2019-02-22T10:08:37.809Z,22.70
2019-02-22T10:11:06.796Z,23.67
2019-02-22T10:13:37.692Z,24.50
2019-02-22T10:16:06.707Z,22.77
2019-02-22T10:18:35.612Z,25.80
2019-02-22T10:21:04.695Z,24.10
2019-02-22T10:23:33.681Z,23.87
2019-02-22T10:26:02.653Z,22.70
2019-02-22T10:28:31.805Z,22.30
2019-02-22T10:31:00.744Z,21.77
2019-02-22T10:33:36.649Z,23.20
2019-02-22T10:36:00.501Z,20.40
2019-02-22T10:38:29.540Z,20.10
2019-02-22T10:40:58.552Z,17.73
2019-02-22T10:43:27.615Z,19.07
2019-02-22T10:45:56.657Z,17.33
2019-02-22T10:48:25.690Z,17.83
2019-02-22T10:50:54.798Z,16.93
2019-02-22T10:53:23.691Z,17.00
2019-02-22T10:55:52.802Z,16.37
2019-02-22T10:58:21.777Z,14.80
2019-02-22T11:00:50.825Z,16.47
2019-02-22T11:03:19.936Z,16.80
2019-02-22T11:05:48.829Z,16.23
2019-02-22T11:08:17.838Z,16.27
2019-02-22T11:10:47.145Z,14.50
2019-02-22T11:13:16.266Z,13.67
2019-02-22T11:15:45.917Z,13.63
2019-02-22T11:18:14.899Z,13.63
2019-02-22T11:20:43.810Z,12.17
2019-02-22T11:23:12.933Z,12.73
2019-02-22T11:25:41.904Z,15.23
2019-02-22T11:28:10.904Z,13.83
2019-02-22T11:30:39.896Z,12.47
2019-02-22T11:33:08.858Z,11.10
2019-02-22T11:35:37.960Z,12.10
2019-02-22T11:38:06.875Z,12.90
2019-02-22T11:40:35.860Z,13.30
2019-02-22T11:43:04.960Z,13.80
2019-02-22T11:45:34.224Z,14.30
2019-02-22T11:48:09.239Z,12.30
2019-02-22T11:50:33.941Z,12.47
2019-02-22T11:53:02.989Z,11.30
2019-02-22T11:55:32.061Z,12.27
2019-02-22T11:58:01.201Z,12.80
2019-02-22T12:00:32.943Z,12.17
2019-02-22T12:03:15.947Z,11.13
2019-02-22T12:05:32.680Z,11.20
2019-02-22T12:08:03.587Z,8.60
2019-02-22T12:10:32.448Z,6.97
2019-02-22T12:13:01.628Z,6.07
2019-02-22T12:15:31.594Z,5.20
2019-02-22T12:18:00.700Z,5.60
2019-02-22T12:20:29.680Z,5.00
2019-02-22T12:22:58.700Z,6.27
2019-02-22T12:25:27.676Z,6.70
2019-02-22T12:27:56.674Z,7.10
2019-02-22T12:30:25.864Z,7.53
2019-02-22T12:32:55.016Z,7.50
2019-02-22T12:35:23.961Z,8.00
2019-02-22T12:37:53.049Z,8.37
2019-02-22T12:40:22.021Z,7.70
2019-02-22T12:42:51.069Z,7.40
2019-02-22T12:45:20.416Z,9.23
2019-02-22T12:47:49.449Z,8.97
2019-02-22T12:50:18.445Z,7.73
2019-02-22T12:52:47.441Z,8.53
2019-02-22T12:55:16.425Z,10.30
2019-02-22T12:57:45.424Z,8.70
2019-02-22T13:00:14.436Z,9.70
2019-02-22T13:02:43.740Z,10.67
2019-02-22T13:05:15.263Z,10.50
2019-02-22T13:07:44.356Z,8.70
2019-02-22T13:10:13.388Z,9.80
2019-02-22T13:12:42.370Z,7.90
2019-02-22T13:15:14.503Z,7.07
2019-02-22T13:17:42.802Z,6.23
2019-02-22T13:20:12.005Z,8.97
2019-02-22T13:22:41.069Z,7.13
2019-02-22T13:25:10.093Z,6.30
2019-02-22T13:27:39.072Z,5.60
2019-02-22T13:30:09.232Z,6.17
2019-02-22T13:32:38.381Z,6.60
2019-02-22T13:35:07.400Z,6.27
2019-02-22T13:37:36.366Z,6.20
2019-02-22T13:40:06.329Z,6.50
2019-02-22T13:42:35.320Z,5.83
2019-02-22T13:45:04.523Z,5.67
2019-02-22T13:47:33.410Z,6.80
2019-02-22T13:50:02.473Z,6.27
2019-02-22T13:52:31.423Z,6.97
2019-02-22T13:55:00.301Z,6.73
2019-02-22T13:57:30.364Z,6.17
2019-02-22T13:59:59.767Z,6.10
2019-02-22T14:02:28.731Z,6.73
2019-02-22T14:04:57.653Z,5.77
2019-02-22T14:07:26.644Z,6.20
2019-02-22T14:09:55.536Z,6.33
2019-02-22T14:12:24.579Z,7.67
2019-02-22T14:14:53.500Z,6.90
2019-02-22T14:17:22.060Z,8.17
2019-02-22T14:19:51.064Z,6.97
2019-02-22T14:22:20.172Z,7.40
2019-02-22T14:24:49.145Z,7.60
2019-02-22T14:27:18.257Z,6.80
2019-02-22T14:29:47.546Z,7.33
2019-02-22T14:32:16.494Z,7.10
2019-02-22T14:34:45.588Z,6.83
2019-02-22T14:37:14.706Z,7.30
2019-02-22T14:39:43.836Z,6.80
2019-02-22T14:42:12.850Z,6.97
2019-02-22T14:44:42.982Z,7.90
2019-02-22T14:47:11.981Z,6.97
2019-02-22T14:49:41.092Z,7.20
2019-02-22T14:52:12.653Z,6.60
2019-02-22T14:54:41.004Z,7.20
2019-02-22T14:57:10.044Z,6.50
2019-02-22T14:59:39.025Z,6.30
2019-02-22T15:02:08.025Z,6.50
2019-02-22T15:04:37.030Z,6.10
2019-02-22T15:07:05.990Z,6.93
2019-02-22T15:09:35.309Z,5.90
2019-02-22T15:12:04.291Z,6.50
2019-02-22T15:14:33.248Z,5.70
2019-02-22T15:17:24.221Z,6.37
2019-02-22T15:19:53.172Z,6.10
2019-02-22T15:22:22.157Z,7.03
2019-02-22T15:24:53.556Z,5.90
2019-02-22T15:27:21.976Z,6.17
2019-02-22T15:29:50.989Z,5.80
2019-02-22T15:32:20.212Z,5.30
2019-02-22T15:34:49.562Z,6.07
2019-02-22T15:37:18.452Z,5.87
2019-02-22T15:39:47.496Z,6.00
2019-02-22T15:42:16.630Z,5.23
2019-02-22T15:44:45.620Z,4.80
2019-02-22T15:47:14.690Z,6.30
2019-02-22T15:49:43.718Z,5.40
2019-02-22T15:52:12.673Z,5.40
2019-02-22T15:54:41.656Z,6.37
2019-02-22T15:57:10.680Z,5.30
2019-02-22T15:59:39.558Z,5.10
2019-02-22T16:02:08.630Z,5.23
2019-02-22T16:04:48.157Z,4.30
2019-02-22T16:07:17.187Z,5.33
2019-02-22T16:09:46.273Z,4.87
2019-02-22T16:12:15.367Z,4.47
2019-02-22T16:14:44.468Z,4.00
2019-02-22T16:17:13.530Z,4.10
2019-02-22T16:19:42.528Z,4.77
2019-02-22T16:22:11.610Z,3.97
2019-02-22T16:24:40.674Z,5.17
2019-02-22T16:27:09.743Z,4.20
2019-02-22T16:29:38.724Z,4.90
2019-02-22T16:32:07.824Z,4.67
2019-02-22T16:34:43.627Z,4.60
2019-02-22T16:37:07.611Z,4.47
2019-02-22T16:39:36.668Z,3.90
2019-02-22T16:42:05.773Z,4.70
2019-02-22T16:44:34.857Z,4.40
2019-02-22T16:47:03.829Z,4.30
2019-02-22T16:49:33.129Z,5.03
2019-02-22T16:52:02.634Z,5.60
2019-02-22T16:54:31.585Z,4.60
2019-02-22T16:57:00.889Z,5.27
2019-02-22T16:59:29.828Z,4.40
2019-02-22T17:01:58.929Z,4.90
2019-02-22T17:04:28.006Z,4.43
2019-02-22T17:06:57.100Z,4.97
2019-02-22T17:09:26.098Z,3.97
2019-02-22T17:12:05.835Z,4.20
2019-02-22T17:14:25.793Z,4.00
2019-02-22T17:16:54.345Z,5.10
2019-02-22T17:19:23.326Z,3.90
2019-02-22T17:21:52.554Z,4.50
2019-02-22T17:24:21.638Z,4.43
2019-02-22T17:26:50.758Z,4.70
2019-02-22T17:29:19.834Z,4.83
2019-02-22T17:31:48.892Z,4.53
2019-02-22T17:34:17.864Z,5.37
2019-02-22T17:36:46.869Z,4.50
2019-02-22T17:39:15.860Z,4.70
2019-02-22T17:41:46.538Z,5.90
2019-02-22T17:44:15.053Z,4.90
2019-02-22T17:46:44.049Z,4.67
2019-02-22T17:49:13.077Z,5.53
2019-02-22T17:51:42.149Z,6.03
2019-02-22T17:54:11.224Z,5.50
2019-02-22T17:56:40.274Z,5.60
2019-02-22T17:59:09.486Z,6.17
2019-02-22T18:01:38.496Z,6.40
2019-02-22T18:04:07.583Z,6.70
2019-02-22T18:06:36.582Z,5.90
2019-02-22T18:09:06.293Z,5.87
2019-02-22T18:11:35.301Z,6.00
2019-02-22T18:14:04.460Z,6.03
2019-02-22T18:16:34.850Z,5.40
2019-02-22T18:19:03.838Z,5.97
2019-02-22T18:21:32.875Z,6.97
2019-02-22T18:24:01.433Z,5.37
2019-02-22T18:26:30.365Z,5.80
2019-02-22T18:29:00.882Z,5.83
2019-02-22T18:31:29.955Z,6.00
2019-02-22T18:33:59.013Z,6.77
2019-02-22T18:36:28.202Z,6.70
2019-02-22T18:38:57.297Z,6.27
2019-02-22T18:41:26.270Z,6.20
2019-02-22T18:43:55.355Z,6.60
2019-02-22T18:46:24.539Z,5.90
2019-02-22T18:48:53.658Z,6.80
2019-02-22T18:51:22.747Z,6.90
2019-02-22T18:53:51.776Z,6.80
2019-02-22T18:56:20.997Z,6.57
2019-02-22T18:58:50.218Z,5.73
2019-02-22T19:01:19.173Z,5.97
2019-02-22T19:03:48.229Z,6.47
2019-02-22T19:06:16.838Z,6.50
2019-02-22T19:08:45.832Z,6.57
2019-02-22T19:11:14.855Z,7.00
2019-02-22T19:13:43.855Z,6.90
2019-02-22T19:16:12.924Z,6.77
2019-02-22T19:18:41.996Z,5.90
2019-02-22T19:21:10.959Z,7.47
2019-02-22T19:23:40.048Z,6.30
2019-02-22T19:26:09.059Z,6.20
2019-02-22T19:28:39.124Z,6.93
2019-02-22T19:31:08.238Z,8.07
2019-02-22T19:33:37.249Z,7.07
2019-02-22T19:36:06.306Z,6.03
2019-02-22T19:38:35.451Z,8.30
2019-02-22T19:41:04.594Z,6.53
2019-02-22T19:43:33.748Z,7.17
2019-02-22T19:46:02.960Z,7.10
2019-02-22T19:48:32.029Z,6.60
2019-02-22T19:51:01.142Z,7.33
2019-02-22T19:53:30.480Z,7.77
2019-02-22T19:55:59.646Z,7.40
2019-02-22T19:58:28.678Z,6.93
2019-02-22T20:00:57.662Z,7.30
2019-02-22T20:03:26.236Z,7.57
2019-02-22T20:05:55.309Z,8.00
2019-02-22T20:08:24.322Z,7.80
2019-02-22T20:10:53.453Z,8.87
2019-02-22T20:13:22.690Z,6.03
2019-02-22T20:15:51.745Z,7.13
2019-02-22T20:18:22.718Z,7.77
2019-02-22T20:20:51.778Z,7.90
2019-02-22T20:23:20.894Z,7.50
2019-02-22T20:25:51.767Z,8.27
2019-02-22T20:28:20.894Z,7.03
2019-02-22T20:30:49.964Z,7.03
2019-02-22T20:33:19.529Z,7.23
2019-02-22T20:35:48.644Z,7.90
2019-02-22T20:38:17.864Z,8.53
2019-02-22T20:40:47.098Z,9.10
2019-02-22T20:43:16.359Z,8.90
2019-02-22T20:45:45.523Z,8.47
2019-02-22T20:48:14.601Z,9.50
2019-02-22T20:50:43.854Z,8.73
2019-02-22T20:53:13.710Z,8.10
2019-02-22T20:55:42.808Z,10.20
2019-02-22T20:58:11.865Z,9.13
2019-02-22T21:00:41.087Z,10.93
2019-02-22T21:03:10.173Z,10.70
2019-02-22T21:05:39.385Z,10.93
2019-02-22T21:08:08.411Z,8.83
2019-02-22T21:10:37.540Z,10.57
2019-02-22T21:13:06.730Z,9.77
2019-02-22T21:15:36.307Z,8.77
2019-02-22T21:18:15.615Z,9.77
2019-02-22T21:20:37.700Z,10.33
2019-02-22T21:23:06.831Z,9.83
2019-02-22T21:25:35.997Z,10.33
2019-02-22T21:28:04.919Z,11.80
2019-02-22T21:30:33.939Z,9.07
2019-02-22T21:33:02.955Z,10.87
2019-02-22T21:35:32.211Z,8.90
2019-02-22T21:38:01.402Z,9.10
2019-02-22T21:40:30.563Z,8.67
2019-02-22T21:42:59.591Z,7.00
2019-02-22T21:45:28.583Z,7.20
2019-02-22T21:47:57.547Z,8.60
2019-02-22T21:50:26.606Z,7.70
2019-02-22T21:52:55.818Z,7.90
2019-02-22T21:55:24.904Z,8.90
2019-02-22T21:57:53.934Z,7.47
2019-02-22T22:00:23.041Z,7.03
2019-02-22T22:02:52.168Z,8.37
2019-02-22T22:05:21.231Z,7.97
2019-02-22T22:07:50.151Z,8.03
2019-02-22T22:10:19.137Z,7.80
2019-02-22T22:12:48.473Z,8.20
2019-02-22T22:15:17.470Z,7.97
2019-02-22T22:17:46.516Z,8.00
2019-02-22T22:20:15.655Z,8.90
2019-02-22T22:22:44.708Z,8.37
2019-02-22T22:25:13.800Z,8.33
2019-02-22T22:27:42.648Z,7.57
2019-02-22T22:30:12.319Z,7.33
2019-02-22T22:32:41.393Z,6.97
2019-02-22T22:35:12.021Z,7.30
2019-02-22T22:37:41.013Z,7.77
2019-02-22T22:40:10.378Z,7.20
2019-02-22T22:42:39.475Z,7.50
2019-02-22T22:45:09.368Z,6.53
2019-02-22T22:47:38.316Z,7.33
2019-02-22T22:50:09.626Z,7.20
2019-02-22T22:52:38.561Z,6.53
2019-02-22T22:55:07.969Z,7.50
2019-02-22T22:57:37.086Z,7.87
2019-02-22T23:00:12.106Z,8.27
2019-02-22T23:02:41.257Z,7.07
2019-02-22T23:05:10.430Z,7.70
2019-02-22T23:07:39.529Z,7.00
2019-02-22T23:10:08.636Z,7.83
2019-02-22T23:12:37.713Z,6.53
2019-02-22T23:15:06.793Z,6.53
2019-02-22T23:17:35.912Z,9.97
2019-02-22T23:20:05.112Z,9.13
2019-02-22T23:22:34.562Z,13.20
2019-02-22T23:25:03.661Z,8.00
2019-02-22T23:27:32.753Z,8.27
2019-02-22T23:30:01.672Z,8.20
2019-02-22T23:32:30.723Z,7.57
2019-02-22T23:34:59.713Z,8.20
2019-02-22T23:37:28.670Z,7.37
2019-02-22T23:39:57.917Z,7.40
2019-02-22T23:42:27.012Z,8.73
2019-02-22T23:44:56.119Z,7.90
2019-02-22T23:47:25.090Z,8.70
2019-02-22T23:49:54.062Z,11.20
2019-02-22T23:52:23.056Z,8.40
2019-02-22T23:54:52.021Z,8.13
2019-02-22T23:57:21.199Z,7.70
2019-02-22T23:59:50.169Z,6.87
